createdAt,value
2018-07-08T00:00:54.361Z,15.00
2018-07-08T00:05:58.249Z,14.90
2018-07-08T00:08:29.265Z,14.90
2018-07-08T00:11:00.739Z,14.80
2018-07-08T00:13:32.612Z,14.80
2018-07-08T00:16:04.726Z,14.80
2018-07-08T00:18:36.301Z,14.70
2018-07-08T00:21:07.385Z,14.70
2018-07-08T00:23:39.485Z,14.50
2018-07-08T00:26:10.784Z,14.50
2018-07-08T00:28:43.723Z,14.40
2018-07-08T00:31:15.261Z,14.20
2018-07-08T00:33:47.312Z,14.10
2018-07-08T00:36:18.797Z,14.00
2018-07-08T00:38:50.155Z,13.80
2018-07-08T00:41:22.043Z,13.70
2018-07-08T00:43:54.080Z,13.50
2018-07-08T00:46:25.521Z,13.40
2018-07-08T00:48:56.935Z,13.30
2018-07-08T00:51:28.911Z,13.30
2018-07-08T00:54:01.412Z,13.30
2018-07-08T00:56:32.397Z,13.20
2018-07-08T00:59:03.823Z,13.10
2018-07-08T01:01:35.543Z,13.10
2018-07-08T01:04:07.937Z,13.00
2018-07-08T01:06:38.959Z,13.00
2018-07-08T01:09:11.584Z,12.90
2018-07-08T01:11:43.807Z,12.80
2018-07-08T01:14:15.251Z,12.70
2018-07-08T01:16:46.644Z,12.60
2018-07-08T01:19:18.588Z,12.50
2018-07-08T01:21:50.591Z,12.50
2018-07-08T01:24:21.753Z,12.40
2018-07-08T01:26:53.859Z,12.30
2018-07-08T01:29:25.771Z,12.30
2018-07-08T01:31:57.724Z,12.20
2018-07-08T01:34:28.629Z,12.10
2018-07-08T01:37:00.366Z,12.00
2018-07-08T01:39:32.243Z,12.00
2018-07-08T01:42:04.545Z,11.90
2018-07-08T01:44:35.725Z,11.80
2018-07-08T01:47:07.307Z,11.80
2018-07-08T01:49:38.914Z,11.70
2018-07-08T01:52:10.248Z,11.60
2018-07-08T01:54:41.914Z,11.50
2018-07-08T01:57:15.672Z,11.40
2018-07-08T01:59:48.894Z,11.40
2018-07-08T02:02:20.502Z,11.30
2018-07-08T02:04:52.573Z,11.20
2018-07-08T02:07:24.487Z,11.20
2018-07-08T02:09:56.825Z,11.10
2018-07-08T02:12:28.253Z,11.00
2018-07-08T02:14:59.425Z,10.90
2018-07-08T02:17:31.672Z,10.80
2018-07-08T02:20:03.732Z,10.80
2018-07-08T02:22:35.188Z,10.70
2018-07-08T02:25:06.549Z,10.70
2018-07-08T02:27:38.639Z,10.60
2018-07-08T02:30:10.251Z,10.50
2018-07-08T02:32:41.489Z,10.40
2018-07-08T02:35:13.026Z,10.30
2018-07-08T02:37:45.222Z,10.30
2018-07-08T02:40:16.828Z,10.20
2018-07-08T02:42:48.382Z,10.10
2018-07-08T02:45:20.068Z,10.10
2018-07-08T02:47:52.666Z,10.00
2018-07-08T02:50:24.186Z,10.00
2018-07-08T02:52:55.953Z,10.00
2018-07-08T02:55:27.834Z,9.90
2018-07-08T02:57:59.996Z,9.90
2018-07-08T03:00:30.938Z,9.80
2018-07-08T03:03:02.399Z,9.80
2018-07-08T03:05:34.525Z,9.70
2018-07-08T03:08:06.784Z,9.70
2018-07-08T03:13:08.697Z,9.60
2018-07-08T03:15:40.744Z,9.60
2018-07-08T03:18:12.302Z,9.60
2018-07-08T03:20:43.631Z,9.50
2018-07-08T03:23:14.167Z,9.50
2018-07-08T03:25:46.210Z,9.60
2018-07-08T03:28:17.429Z,9.60
2018-07-08T03:30:48.616Z,9.60
2018-07-08T03:33:20.512Z,9.70
2018-07-08T03:35:52.621Z,9.70
2018-07-08T03:38:24.022Z,9.70
2018-07-08T03:40:55.265Z,9.70
2018-07-08T03:43:27.318Z,9.70
2018-07-08T03:45:59.597Z,9.60
2018-07-08T03:48:30.510Z,9.70
2018-07-08T03:51:02.251Z,9.70
2018-07-08T03:53:34.157Z,9.80
2018-07-08T03:56:06.117Z,9.90
2018-07-08T03:58:37.547Z,9.90
2018-07-08T04:01:08.827Z,10.10
2018-07-08T04:03:40.799Z,10.90
2018-07-08T04:06:12.433Z,11.90
2018-07-08T04:08:43.765Z,12.80
2018-07-08T04:11:15.699Z,13.70
2018-07-08T04:13:47.617Z,13.70
2018-07-08T04:16:18.617Z,13.10
2018-07-08T04:18:49.995Z,12.60
2018-07-08T04:21:21.659Z,12.30
2018-07-08T04:23:53.657Z,12.10
2018-07-08T04:26:24.877Z,12.00
2018-07-08T04:28:56.307Z,12.00
2018-07-08T04:31:28.690Z,12.00
2018-07-08T04:34:00.646Z,12.10
2018-07-08T04:36:31.879Z,12.30
2018-07-08T04:39:03.335Z,12.40
2018-07-08T04:41:34.997Z,12.50
2018-07-08T04:44:07.151Z,12.60
2018-07-08T04:46:39.705Z,12.70
2018-07-08T04:49:11.019Z,12.90
2018-07-08T04:51:43.931Z,13.00
2018-07-08T04:54:15.492Z,13.10
2018-07-08T04:56:46.879Z,13.20
2018-07-08T04:59:18.801Z,13.20
2018-07-08T05:01:50.737Z,13.30
2018-07-08T05:04:22.223Z,13.30
2018-07-08T05:06:53.808Z,13.40
2018-07-08T05:09:25.767Z,13.50
2018-07-08T05:11:57.771Z,13.70
2018-07-08T05:14:29.105Z,14.70
2018-07-08T05:17:00.502Z,15.70
2018-07-08T05:19:32.476Z,16.40
2018-07-08T05:22:04.290Z,16.90
2018-07-08T05:24:34.866Z,17.30
2018-07-08T05:27:06.061Z,17.60
2018-07-08T05:29:38.050Z,17.70
2018-07-08T05:32:09.733Z,17.80
2018-07-08T05:34:41.351Z,17.90
2018-07-08T05:37:12.666Z,18.30
2018-07-08T05:39:44.851Z,18.40
2018-07-08T05:42:16.144Z,18.30
2018-07-08T05:44:47.458Z,18.30
2018-07-08T05:47:19.777Z,18.30
2018-07-08T05:49:51.945Z,18.30
2018-07-08T05:52:24.192Z,18.60
2018-07-08T05:54:55.506Z,18.60
2018-07-08T05:57:28.096Z,18.80
2018-07-08T06:00:00.073Z,18.60
2018-07-08T06:02:31.302Z,18.80
2018-07-08T06:05:02.873Z,18.80
2018-07-08T06:07:35.356Z,18.70
2018-07-08T06:10:07.322Z,18.80
2018-07-08T06:12:38.349Z,18.50
2018-07-08T06:15:09.640Z,18.80
2018-07-08T06:17:41.952Z,18.80
2018-07-08T06:20:15.587Z,18.70
2018-07-08T06:22:47.345Z,18.80
2018-07-08T06:25:19.848Z,18.60
2018-07-08T06:27:52.297Z,19.20
2018-07-08T06:30:24.321Z,19.30
2018-07-08T06:32:56.330Z,19.50
2018-07-08T06:35:29.107Z,19.50
2018-07-08T06:38:02.088Z,19.70
2018-07-08T06:40:34.564Z,20.10
2018-07-08T06:43:06.596Z,19.70
2018-07-08T06:45:39.253Z,19.40
2018-07-08T06:48:10.720Z,19.40
2018-07-08T06:50:42.759Z,19.10
2018-07-08T06:53:14.891Z,18.90
2018-07-08T06:55:47.701Z,18.60
2018-07-08T06:58:19.991Z,18.70
2018-07-08T07:00:52.109Z,18.80
2018-07-08T07:03:24.743Z,19.20
2018-07-08T07:05:57.471Z,19.60
2018-07-08T07:08:29.633Z,20.10
2018-07-08T07:11:01.970Z,20.30
2018-07-08T07:13:34.581Z,20.40
2018-07-08T07:16:07.334Z,20.50
2018-07-08T07:18:39.279Z,20.40
2018-07-08T07:21:11.492Z,20.50
2018-07-08T07:23:43.855Z,20.90
2018-07-08T07:26:16.825Z,20.80
2018-07-08T07:28:49.674Z,20.90
2018-07-08T07:31:22.815Z,21.00
2018-07-08T07:33:55.668Z,21.30
2018-07-08T07:36:28.180Z,21.70
2018-07-08T07:39:01.240Z,21.60
2018-07-08T07:44:05.883Z,21.60
2018-07-08T07:46:38.592Z,21.40
2018-07-08T07:51:42.858Z,21.60
2018-07-08T07:54:15.696Z,22.20
2018-07-08T07:56:47.901Z,22.10
2018-07-08T07:59:20.660Z,21.60
2018-07-08T08:01:53.590Z,21.90
2018-07-08T08:04:25.542Z,21.40
2018-07-08T08:06:58.016Z,21.20
2018-07-08T08:09:30.526Z,21.50
2018-07-08T08:12:03.358Z,21.30
2018-07-08T08:14:35.316Z,21.20
2018-07-08T08:17:08.740Z,21.30
2018-07-08T08:19:41.545Z,21.50
2018-07-08T08:22:14.632Z,21.40
2018-07-08T08:24:46.692Z,21.10
2018-07-08T08:27:19.342Z,20.90
2018-07-08T08:29:51.998Z,20.70
2018-07-08T08:32:24.042Z,20.40
2018-07-08T08:34:58.154Z,20.50
2018-07-08T08:37:32.184Z,19.90
2018-07-08T08:40:05.286Z,19.80
2018-07-08T08:42:37.683Z,19.60
2018-07-08T08:45:11.313Z,19.30
2018-07-08T08:47:44.628Z,19.50
2018-07-08T08:50:16.796Z,19.80
2018-07-08T08:52:49.834Z,20.50
2018-07-08T08:55:22.682Z,20.80
2018-07-08T08:57:55.432Z,21.30
2018-07-08T09:00:27.016Z,21.30
2018-07-08T09:02:59.202Z,21.50
2018-07-08T09:05:32.062Z,21.70
2018-07-08T09:08:05.324Z,21.60
2018-07-08T09:10:37.512Z,21.40
2018-07-08T09:13:09.529Z,20.90
2018-07-08T09:15:42.402Z,20.60
2018-07-08T09:18:15.336Z,20.40
2018-07-08T09:20:47.694Z,20.10
2018-07-08T09:23:21.316Z,20.20
2018-07-08T09:25:54.831Z,20.60
2018-07-08T09:28:27.022Z,20.70
2018-07-08T09:30:59.358Z,20.80
2018-07-08T09:33:32.868Z,20.70
2018-07-08T09:36:05.727Z,20.40
2018-07-08T09:38:37.916Z,20.30
2018-07-08T09:41:10.152Z,20.20
2018-07-08T09:43:43.829Z,20.40
2018-07-08T09:46:15.857Z,20.40
2018-07-08T09:48:48.020Z,20.50
2018-07-08T09:51:21.449Z,20.20
2018-07-08T09:53:54.679Z,20.30
2018-07-08T09:56:26.851Z,20.50
2018-07-08T09:58:58.977Z,20.80
2018-07-08T10:01:38.194Z,21.00
2018-07-08T10:04:12.513Z,21.00
2018-07-08T10:06:45.328Z,21.40
2018-07-08T10:09:19.586Z,21.30
2018-07-08T10:11:53.218Z,21.10
2018-07-08T10:14:25.334Z,21.10
2018-07-08T10:16:57.270Z,21.20
2018-07-08T10:19:30.150Z,21.40
2018-07-08T10:22:03.064Z,21.60
2018-07-08T10:24:36.819Z,21.90
2018-07-08T10:28:22.040Z,22.30
2018-07-08T10:30:55.794Z,22.30
2018-07-08T10:33:37.430Z,22.80
2018-07-08T10:36:09.797Z,22.50
2018-07-08T10:38:42.765Z,22.50
2018-07-08T10:41:14.940Z,22.30
2018-07-08T10:43:47.816Z,21.80
2018-07-08T10:46:20.222Z,21.80
2018-07-08T10:48:52.177Z,21.70
2018-07-08T10:51:24.961Z,21.80
2018-07-08T10:53:58.272Z,21.80
2018-07-08T10:56:30.451Z,21.50
2018-07-08T10:59:02.556Z,21.30
2018-07-08T11:01:35.785Z,21.30
2018-07-08T11:04:08.978Z,21.60
2018-07-08T11:06:40.974Z,21.70
2018-07-08T11:09:13.407Z,21.70
2018-07-08T11:11:46.679Z,21.80
2018-07-08T11:14:18.678Z,21.70
2018-07-08T11:16:51.163Z,21.50
2018-07-08T11:19:23.967Z,21.40
2018-07-08T11:21:56.634Z,21.40
2018-07-08T11:24:30.041Z,21.60
2018-07-08T11:27:02.782Z,22.00
2018-07-08T11:29:35.633Z,22.10
2018-07-08T11:32:08.903Z,22.00
2018-07-08T11:34:42.515Z,22.30
2018-07-08T11:37:14.735Z,22.70
2018-07-08T11:39:47.651Z,23.00
2018-07-08T11:42:20.994Z,23.40
2018-07-08T11:44:53.182Z,23.70
2018-07-08T11:47:26.514Z,23.80
2018-07-08T11:49:59.703Z,23.60
2018-07-08T11:52:32.056Z,23.10
2018-07-08T11:55:05.204Z,22.80
2018-07-08T11:57:38.120Z,22.70
2018-07-08T12:00:09.348Z,22.80
2018-07-08T12:02:41.088Z,23.20
2018-07-08T12:05:13.878Z,24.00
2018-07-08T12:07:47.563Z,24.50
2018-07-08T12:10:20.229Z,24.70
2018-07-08T12:12:52.409Z,24.60
2018-07-08T12:15:25.162Z,24.20
2018-07-08T12:17:57.942Z,23.90
2018-07-08T12:20:30.249Z,23.30
2018-07-08T12:23:02.486Z,23.20
2018-07-08T12:25:35.070Z,23.60
2018-07-08T12:28:07.890Z,23.50
2018-07-08T12:30:39.999Z,23.20
2018-07-08T12:33:12.236Z,23.20
2018-07-08T12:35:44.862Z,23.10
2018-07-08T12:38:16.988Z,23.10
2018-07-08T12:40:49.142Z,23.10
2018-07-08T12:43:27.269Z,23.30
2018-07-08T12:46:01.500Z,23.80
2018-07-08T12:48:34.246Z,24.00
2018-07-08T12:51:06.872Z,24.30
2018-07-08T12:53:40.214Z,24.70
2018-07-08T12:56:12.931Z,25.30
2018-07-08T12:58:46.341Z,25.50
2018-07-08T13:01:19.117Z,25.40
2018-07-08T13:03:52.378Z,25.20
2018-07-08T13:06:24.488Z,25.10
2018-07-08T13:08:56.908Z,25.00
2018-07-08T13:11:29.640Z,25.50
2018-07-08T13:14:04.720Z,25.70
2018-07-08T13:16:36.600Z,25.10
2018-07-08T13:19:10.069Z,24.70
2018-07-08T13:21:43.199Z,24.90
2018-07-08T13:24:15.183Z,24.80
2018-07-08T13:26:47.165Z,24.80
2018-07-08T13:29:20.119Z,24.70
2018-07-08T13:31:52.807Z,24.80
2018-07-08T13:34:24.967Z,25.00
2018-07-08T13:39:29.122Z,24.80
2018-07-08T13:42:01.857Z,24.10
2018-07-08T13:44:34.056Z,23.50
2018-07-08T13:47:06.140Z,23.30
2018-07-08T13:49:39.430Z,23.40
2018-07-08T13:52:11.597Z,23.60
2018-07-08T13:54:44.231Z,24.10
2018-07-08T13:57:18.577Z,24.40
2018-07-08T13:59:51.201Z,24.60
2018-07-08T14:02:23.116Z,24.60
2018-07-08T14:04:56.148Z,24.30
2018-07-08T14:07:29.719Z,24.30
2018-07-08T14:10:02.522Z,24.00
2018-07-08T14:12:34.464Z,23.70
2018-07-08T14:15:06.450Z,23.90
2018-07-08T14:17:39.424Z,24.30
2018-07-08T14:20:12.061Z,24.50
2018-07-08T14:22:44.115Z,24.00
2018-07-08T14:25:16.983Z,23.60
2018-07-08T14:27:49.891Z,23.70
2018-07-08T14:30:22.091Z,23.90
2018-07-08T14:32:54.164Z,23.60
2018-07-08T14:35:28.011Z,23.60
2018-07-08T14:38:00.726Z,23.40
2018-07-08T14:40:32.642Z,23.50
2018-07-08T14:43:05.163Z,23.70
2018-07-08T14:45:38.084Z,23.80
2018-07-08T14:48:10.462Z,23.80
2018-07-08T14:50:43.642Z,23.60
2018-07-08T14:53:16.283Z,23.40
2018-07-08T14:55:49.142Z,23.30
2018-07-08T14:58:21.935Z,23.40
2018-07-08T15:00:54.240Z,23.60
2018-07-08T15:03:27.777Z,23.60
2018-07-08T15:06:00.560Z,23.90
2018-07-08T15:08:32.356Z,24.00
2018-07-08T15:11:04.356Z,24.00
2018-07-08T15:13:37.612Z,23.80
2018-07-08T15:16:09.975Z,23.90
2018-07-08T15:18:42.696Z,23.70
2018-07-08T15:21:15.630Z,23.60
2018-07-08T15:23:48.670Z,23.40
2018-07-08T15:26:20.974Z,23.70
2018-07-08T15:28:52.940Z,23.80
2018-07-08T15:31:25.676Z,23.70
2018-07-08T15:33:59.410Z,23.70
2018-07-08T15:36:31.672Z,23.80
2018-07-08T15:39:03.990Z,23.60
2018-07-08T15:41:37.054Z,23.40
2018-07-08T15:44:09.608Z,23.20
2018-07-08T15:46:41.700Z,23.20
2018-07-08T15:49:13.848Z,23.20
2018-07-08T15:51:47.156Z,23.00
2018-07-08T15:54:19.490Z,22.70
2018-07-08T15:56:51.502Z,22.60
2018-07-08T15:59:24.319Z,22.60
2018-07-08T16:01:57.142Z,22.60
2018-07-08T16:04:29.311Z,22.70
2018-07-08T16:07:01.537Z,22.90
2018-07-08T16:09:34.927Z,23.10
2018-07-08T16:12:07.837Z,23.30
2018-07-08T16:14:39.928Z,23.30
2018-07-08T16:17:12.067Z,23.20
2018-07-08T16:19:43.853Z,23.20
2018-07-08T16:22:23.130Z,23.20
2018-07-08T16:24:55.489Z,23.40
2018-07-08T16:27:27.093Z,23.20
2018-07-08T16:29:59.275Z,22.90
2018-07-08T16:32:31.444Z,22.70
2018-07-08T16:35:02.727Z,22.60
2018-07-08T16:37:35.845Z,22.60
2018-07-08T16:40:07.922Z,22.40
2018-07-08T16:42:39.047Z,22.50
2018-07-08T16:45:10.393Z,22.60
2018-07-08T16:47:43.334Z,22.70
2018-07-08T16:50:15.433Z,22.80
2018-07-08T16:52:47.571Z,22.90
2018-07-08T16:55:20.171Z,23.00
2018-07-08T16:57:53.391Z,23.00
2018-07-08T17:00:25.341Z,23.20
2018-07-08T17:02:58.515Z,23.40
2018-07-08T17:05:32.141Z,23.40
2018-07-08T17:08:05.350Z,23.10
2018-07-08T17:10:36.607Z,22.90
2018-07-08T17:13:07.990Z,22.60
2018-07-08T17:15:42.896Z,22.50
2018-07-08T17:18:14.959Z,22.20
2018-07-08T17:20:48.765Z,22.10
2018-07-08T17:23:21.807Z,22.00
2018-07-08T17:25:54.133Z,22.00
2018-07-08T17:28:26.221Z,22.00
2018-07-08T17:30:58.473Z,22.10
2018-07-08T17:33:30.700Z,22.10
2018-07-08T17:36:08.415Z,22.10
2018-07-08T17:38:41.020Z,22.00
2018-07-08T17:41:14.103Z,22.00
2018-07-08T17:43:46.623Z,22.00
2018-07-08T17:46:18.734Z,21.90
2018-07-08T17:48:50.099Z,21.80
2018-07-08T17:51:22.258Z,21.70
2018-07-08T17:53:55.174Z,21.60
2018-07-08T17:56:26.459Z,21.50
2018-07-08T17:58:57.806Z,21.50
2018-07-08T18:01:29.693Z,21.40
2018-07-08T18:04:02.874Z,21.30
2018-07-08T18:06:34.617Z,21.30
2018-07-08T18:11:38.987Z,21.10
2018-07-08T18:14:11.556Z,21.10
2018-07-08T18:16:43.800Z,21.10
2018-07-08T18:21:48.311Z,20.90
2018-07-08T18:24:21.595Z,20.90
2018-07-08T18:26:53.798Z,20.90
2018-07-08T18:29:26.384Z,20.80
2018-07-08T18:31:58.476Z,20.70
2018-07-08T18:34:30.491Z,20.60
2018-07-08T18:37:02.585Z,20.60
2018-07-08T18:39:36.225Z,20.50
2018-07-08T18:42:08.925Z,20.40
2018-07-08T18:44:41.258Z,20.30
2018-07-08T18:47:13.201Z,20.20
2018-07-08T18:49:46.058Z,20.10
2018-07-08T18:52:18.375Z,20.00
2018-07-08T18:54:50.499Z,19.80
2018-07-08T18:57:23.406Z,19.70
2018-07-08T19:02:27.570Z,19.30
2018-07-08T19:05:00.090Z,19.20
2018-07-08T19:07:32.534Z,19.10
2018-07-08T19:10:03.812Z,18.90
2018-07-08T19:12:35.721Z,18.80
2018-07-08T19:15:07.966Z,18.60
2018-07-08T19:17:39.906Z,18.50
2018-07-08T19:20:11.663Z,18.40
2018-07-08T19:22:43.911Z,18.30
2018-07-08T19:25:16.307Z,18.10
2018-07-08T19:27:48.837Z,18.10
2018-07-08T19:30:20.224Z,18.00
2018-07-08T19:32:52.188Z,17.90
2018-07-08T19:35:26.332Z,17.70
2018-07-08T19:37:58.476Z,17.60
2018-07-08T19:40:30.405Z,17.50
2018-07-08T19:43:02.906Z,17.30
2018-07-08T19:45:34.886Z,17.20
2018-07-08T19:48:06.575Z,17.00
2018-07-08T19:50:38.059Z,16.90
2018-07-08T19:53:10.261Z,16.80
2018-07-08T19:55:42.349Z,16.80
2018-07-08T19:58:14.465Z,16.70
2018-07-08T20:00:45.711Z,16.60
2018-07-08T20:03:17.265Z,16.60
2018-07-08T20:05:49.257Z,16.60
2018-07-08T20:08:20.967Z,16.50
2018-07-08T20:10:52.001Z,16.50
2018-07-08T20:13:25.055Z,16.40
2018-07-08T20:15:58.051Z,16.30
2018-07-08T20:18:28.852Z,16.20
2018-07-08T20:21:00.340Z,16.20
2018-07-08T20:23:33.193Z,16.10
2018-07-08T20:26:05.621Z,16.00
2018-07-08T20:28:37.395Z,15.90
2018-07-08T20:31:09.067Z,15.80
2018-07-08T20:33:41.235Z,15.70
2018-07-08T20:36:13.449Z,15.60
2018-07-08T20:38:45.143Z,15.60
2018-07-08T20:41:17.662Z,15.50
2018-07-08T20:43:50.771Z,15.40
2018-07-08T20:46:22.501Z,15.40
2018-07-08T20:48:54.017Z,15.30
2018-07-08T20:51:26.316Z,15.20
2018-07-08T20:53:58.493Z,15.10
2018-07-08T20:56:31.377Z,15.10
2018-07-08T20:59:02.684Z,15.00
2018-07-08T21:01:35.572Z,15.00
2018-07-08T21:04:06.886Z,15.00
2018-07-08T21:06:38.538Z,14.90
2018-07-08T21:09:10.169Z,14.90
2018-07-08T21:11:42.113Z,14.90
2018-07-08T21:14:14.080Z,14.90
2018-07-08T21:16:45.540Z,14.90
2018-07-08T21:19:17.061Z,15.00
2018-07-08T21:21:49.214Z,15.10
2018-07-08T21:24:20.103Z,15.10
2018-07-08T21:26:51.600Z,15.20
2018-07-08T21:29:23.130Z,15.30
2018-07-08T21:31:55.663Z,15.30
2018-07-08T21:34:27.488Z,15.40
2018-07-08T21:36:58.951Z,15.40
2018-07-08T21:39:30.624Z,15.40
2018-07-08T21:42:03.044Z,15.40
2018-07-08T21:44:34.501Z,15.40
2018-07-08T21:47:06.175Z,15.40
2018-07-08T21:49:38.465Z,15.50
2018-07-08T21:52:10.611Z,15.50
2018-07-08T21:54:41.977Z,15.50
2018-07-08T21:57:13.597Z,15.60
2018-07-08T21:59:45.931Z,15.70
2018-07-08T22:02:22.613Z,15.70
2018-07-08T22:04:54.108Z,15.80
2018-07-08T22:07:31.803Z,15.80
2018-07-08T22:12:34.091Z,15.90
2018-07-08T22:15:05.881Z,15.90
2018-07-08T22:17:37.709Z,15.90
2018-07-08T22:20:09.293Z,15.90
2018-07-08T22:22:40.805Z,15.90
2018-07-08T22:25:12.413Z,16.00
2018-07-08T22:27:44.568Z,16.00
2018-07-08T22:30:16.444Z,16.00
2018-07-08T22:32:48.638Z,16.10
2018-07-08T22:35:20.740Z,16.10
2018-07-08T22:37:57.669Z,16.10
2018-07-08T22:40:29.063Z,16.10
2018-07-08T22:43:00.456Z,16.10
2018-07-08T22:45:32.705Z,16.10
2018-07-08T22:48:05.304Z,16.10
2018-07-08T22:50:36.446Z,16.10
2018-07-08T22:53:07.185Z,16.10
2018-07-08T22:55:39.243Z,16.10
2018-07-08T22:58:11.078Z,16.10
2018-07-08T23:00:52.864Z,16.10
2018-07-08T23:03:45.330Z,16.10
2018-07-08T23:06:17.627Z,16.20
2018-07-08T23:08:50.597Z,16.20
2018-07-08T23:11:23.260Z,16.20
2018-07-08T23:13:56.364Z,16.20
2018-07-08T23:16:28.068Z,16.20
2018-07-08T23:18:59.610Z,16.30
2018-07-08T23:21:30.628Z,16.30
2018-07-08T23:24:02.899Z,16.30
2018-07-08T23:26:35.652Z,16.30
2018-07-08T23:29:07.191Z,16.40
2018-07-08T23:31:38.464Z,16.40
2018-07-08T23:34:10.358Z,16.40
2018-07-08T23:36:41.646Z,16.40
2018-07-08T23:39:14.611Z,16.40
2018-07-08T23:41:46.575Z,16.40
2018-07-08T23:44:18.278Z,16.40
2018-07-08T23:46:48.536Z,16.40
2018-07-08T23:49:20.424Z,16.40
2018-07-08T23:51:52.454Z,16.40
2018-07-08T23:54:23.743Z,16.40
2018-07-08T23:56:55.164Z,16.40
2018-07-08T23:59:27.306Z,16.30
